Time;durP1;ratioP1;P1;durP2;ratioP2;P2;SDS_P1;SDS_P2;PMS_P1;PMS_P2;Temp;Humidity;BMP_temperature;BMP_pressure;BME280_temperature;BME280_humidity;BME280_pressure;Samples;Min_cycle;Max_cycle;Signal;HPM_P1;HPM_P2
2023/10/08 00:00:45;;;;;;;22.55;7.70;;;;;;;;;;5051909;28;20511;-63
2023/10/08 00:03:10;;;;;;;23.27;7.60;;;;;;;;;;5053901;28;20052;-62
2023/10/08 00:05:36;;;;;;;16.90;7.40;;;;;;;;;;5052086;28;20037;-62
2023/10/08 00:08:01;;;;;;;21.85;9.27;;;;;;;;;;5053018;28;20025;-65
2023/10/08 00:10:27;;;;;;;19.33;9.50;;;;;;;;;;5051686;28;20033;-62
2023/10/08 00:12:52;;;;;;;30.90;10.70;;;;;;;;;;5052393;28;20021;-62
2023/10/08 00:15:17;;;;;;;22.08;10.18;;;;;;;;;;5051666;28;20131;-62
2023/10/08 00:17:45;;;;;;;24.55;12.00;;;;;;;;;;5053137;28;20079;-63
2023/10/08 00:20:14;;;;;;;21.60;11.63;;;;;;;;;;5065582;28;20050;-63
2023/10/08 00:22:41;;;;;;;21.77;10.55;;;;;;;;;;5072967;28;20047;-62
2023/10/08 00:25:11;;;;;;;37.65;12.63;;;;;;;;;;5071399;28;20017;-62
2023/10/08 00:27:38;;;;;;;29.63;16.65;;;;;;;;;;5073135;28;20463;-62
2023/10/08 00:30:13;;;;;;;24.87;13.80;;;;;;;;;;5070915;28;20074;-62
2023/10/08 00:32:38;;;;;;;30.33;14.13;;;;;;;;;;5073034;28;20487;-62
2023/10/08 00:35:13;;;;;;;36.67;12.77;;;;;;;;;;5071206;28;20060;-62
2023/10/08 00:37:38;;;;;;;27.95;13.32;;;;;;;;;;5072777;28;20025;-62
2023/10/08 00:40:11;;;;;;;26.00;14.10;;;;;;;;;;5071002;28;20082;-62
2023/10/08 00:42:36;;;;;;;31.40;15.77;;;;;;;;;;5073118;28;20357;-61
2023/10/08 00:45:04;;;;;;;34.28;13.57;;;;;;;;;;5065768;28;20028;-62
2023/10/08 00:47:34;;;;;;;35.38;14.88;;;;;;;;;;5053053;28;20388;-62
2023/10/08 00:50:07;;;;;;;31.23;10.57;;;;;;;;;;5050839;28;20491;-62
2023/10/08 00:52:57;;;;;;;26.27;12.80;;;;;;;;;;5052625;28;20408;-62
2023/10/08 00:55:28;;;;;;;25.42;11.38;;;;;;;;;;5051359;28;20021;-61
2023/10/08 00:57:57;;;;;;;43.17;12.88;;;;;;;;;;5052476;28;20052;-62
2023/10/08 01:00:22;;;;;;;36.85;13.57;;;;;;;;;;5050708;28;20029;-62
2023/10/08 01:03:00;;;;;;;26.02;10.32;;;;;;;;;;5052421;28;20415;-61
2023/10/08 01:05:36;;;;;;;29.58;10.32;;;;;;;;;;5050730;28;20349;-62
2023/10/08 01:08:05;;;;;;;25.77;8.90;;;;;;;;;;5050752;28;20073;-61
2023/10/08 01:10:31;;;;;;;35.42;12.90;;;;;;;;;;5050998;28;20044;-61
2023/10/08 01:13:05;;;;;;;26.15;12.57;;;;;;;;;;5052001;28;20020;-61
2023/10/08 01:15:30;;;;;;;23.05;9.90;;;;;;;;;;5050560;28;20060;-61
2023/10/08 01:18:06;;;;;;;23.02;10.05;;;;;;;;;;5052183;28;20464;-61
2023/10/08 01:20:36;;;;;;;22.67;9.43;;;;;;;;;;5045662;28;20033;-61
2023/10/08 01:23:10;;;;;;;38.33;12.98;;;;;;;;;;5051710;28;20028;-61
2023/10/08 01:25:39;;;;;;;26.00;10.73;;;;;;;;;;5051762;28;20110;-61
2023/10/08 01:28:09;;;;;;;36.63;12.82;;;;;;;;;;5051846;28;20106;-61
2023/10/08 01:30:37;;;;;;;24.48;9.20;;;;;;;;;;5049925;28;20530;-61
2023/10/08 01:33:02;;;;;;;26.40;9.75;;;;;;;;;;5051785;28;20033;-61
2023/10/08 01:35:28;;;;;;;19.25;8.60;;;;;;;;;;5050282;28;20463;-70
2023/10/08 01:37:56;;;;;;;39.97;11.33;;;;;;;;;;5051082;28;20021;-61
2023/10/08 01:40:21;;;;;;;31.40;12.40;;;;;;;;;;5050344;28;20057;-61
2023/10/08 01:42:50;;;;;;;29.63;11.60;;;;;;;;;;5069145;28;20055;-61
2023/10/08 01:45:17;;;;;;;21.23;9.52;;;;;;;;;;5069774;28;20033;-61
2023/10/08 01:47:43;;;;;;;29.30;9.48;;;;;;;;;;5071527;28;20044;-61
2023/10/08 01:50:21;;;;;;;22.05;9.23;;;;;;;;;;5070240;28;20459;-61
2023/10/08 01:52:46;;;;;;;24.00;10.25;;;;;;;;;;5070582;28;20455;-61
2023/10/08 01:55:17;;;;;;;25.48;8.73;;;;;;;;;;5070170;28;20035;-70
2023/10/08 01:57:43;;;;;;;24.67;10.02;;;;;;;;;;5071371;28;20031;-62
2023/10/08 02:00:09;;;;;;;37.25;11.10;;;;;;;;;;5069514;28;20996;-62
2023/10/08 02:02:34;;;;;;;25.95;10.30;;;;;;;;;;5071343;28;20024;-62
2023/10/08 02:04:59;;;;;;;33.47;13.05;;;;;;;;;;5069568;28;20622;-62
2023/10/08 02:07:24;;;;;;;23.52;11.05;;;;;;;;;;5071066;28;20074;-63
2023/10/08 02:09:50;;;;;;;50.88;12.52;;;;;;;;;;5058352;28;20483;-62
2023/10/08 02:12:15;;;;;;;23.75;10.23;;;;;;;;;;5051177;28;20104;-62
2023/10/08 02:14:40;;;;;;;29.27;11.60;;;;;;;;;;5050935;28;20009;-63
2023/10/08 02:17:06;;;;;;;24.30;9.95;;;;;;;;;;5049072;28;20557;-63
2023/10/08 02:19:36;;;;;;;33.80;14.15;;;;;;;;;;5050886;28;20041;-63
2023/10/08 02:22:02;;;;;;;21.40;10.80;;;;;;;;;;5048918;28;20040;-63
2023/10/08 02:24:29;;;;;;;13.05;7.80;;;;;;;;;;5051117;28;20079;-63
2023/10/08 02:26:56;;;;;;;6.68;5.18;;;;;;;;;;5049211;28;20029;-63
2023/10/08 02:29:29;;;;;;;7.00;6.43;;;;;;;;;;5050811;28;20013;-64
2023/10/08 02:31:55;;;;;;;4.57;4.05;;;;;;;;;;5048908;28;20095;-63
2023/10/08 02:34:20;;;;;;;4.53;4.13;;;;;;;;;;5050615;28;20084;-62
2023/10/08 02:36:46;;;;;;;4.95;4.15;;;;;;;;;;5047570;28;20070;-62
2023/10/08 02:39:21;;;;;;;7.97;7.28;;;;;;;;;;5050714;28;20023;-62
2023/10/08 02:41:47;;;;;;;17.83;10.80;;;;;;;;;;5048997;28;20039;-62
2023/10/08 02:44:13;;;;;;;6.15;5.55;;;;;;;;;;5050480;28;20108;-63
2023/10/08 02:46:42;;;;;;;17.17;15.48;;;;;;;;;;5049269;28;20037;-61
2023/10/08 02:49:11;;;;;;;4.95;4.43;;;;;;;;;;5050645;28;20017;-62
2023/10/08 02:51:37;;;;;;;6.30;4.65;;;;;;;;;;5048781;28;20523;-61
2023/10/08 02:54:05;;;;;;;7.00;4.68;;;;;;;;;;5050550;28;20403;-62
2023/10/08 02:56:32;;;;;;;16.95;7.15;;;;;;;;;;5048916;28;20044;-62
2023/10/08 02:58:57;;;;;;;5.63;3.60;;;;;;;;;;5050197;28;20116;-62
2023/10/08 03:01:22;;;;;;;7.40;4.10;;;;;;;;;;5049130;28;20103;-61
2023/10/08 03:03:47;;;;;;;15.27;13.38;;;;;;;;;;5051205;28;20440;-69
2023/10/08 03:06:14;;;;;;;5.72;4.32;;;;;;;;;;5048613;28;20165;-60
2023/10/08 03:08:41;;;;;;;6.45;3.72;;;;;;;;;;5050814;28;20032;-60
2023/10/08 03:11:16;;;;;;;8.10;3.45;;;;;;;;;;5048809;28;20033;-61
2023/10/08 03:13:41;;;;;;;7.03;3.63;;;;;;;;;;5050064;28;20049;-60
2023/10/08 03:16:09;;;;;;;7.18;6.35;;;;;;;;;;5049059;28;20064;-61
2023/10/08 03:18:41;;;;;;;6.38;5.20;;;;;;;;;;5050423;28;20052;-61
2023/10/08 03:21:43;;;;;;;5.63;5.03;;;;;;;;;;5048615;28;20041;-62
2023/10/08 03:24:22;;;;;;;3.92;3.42;;;;;;;;;;5050182;28;20025;-62
2023/10/08 03:26:55;;;;;;;10.77;9.88;;;;;;;;;;5048346;28;20099;-62
2023/10/08 03:29:20;;;;;;;4.63;3.83;;;;;;;;;;5050642;28;20383;-63
2023/10/08 03:34:14;;;;;;;12.45;11.35;;;;;;;;;;5049839;28;20084;-63
2023/10/08 03:36:46;;;;;;;9.45;8.65;;;;;;;;;;5048901;28;20048;-63
2023/10/08 03:39:13;;;;;;;12.73;11.48;;;;;;;;;;5050476;28;20029;-62
2023/10/08 03:41:39;;;;;;;14.68;10.25;;;;;;;;;;5048471;28;20041;-61
2023/10/08 03:44:05;;;;;;;6.72;3.88;;;;;;;;;;5050162;28;20048;-61
2023/10/08 03:46:31;;;;;;;8.25;3.80;;;;;;;;;;5048559;28;20496;-63
2023/10/08 03:48:57;;;;;;;6.72;4.55;;;;;;;;;;5052476;28;20021;-63
2023/10/08 03:51:25;;;;;;;4.88;4.32;;;;;;;;;;5052302;28;20037;-64
2023/10/08 03:56:45;;;;;;;9.27;5.30;;;;;;;;;;5046668;28;19978;-62
2023/10/08 03:59:14;;;;;;;7.75;5.25;;;;;;;;;;5048302;28;20461;-63
2023/10/08 04:01:43;;;;;;;7.72;6.18;;;;;;;;;;5047455;28;20037;-62
2023/10/08 04:04:14;;;;;;;8.05;5.80;;;;;;;;;;5053338;28;20025;-62
2023/10/08 04:06:49;;;;;;;6.85;5.72;;;;;;;;;;5079619;28;20472;-62
2023/10/08 04:14:16;;;;;;;7.85;5.82;;;;;;;;;;5053475;28;20424;-62
2023/10/08 04:16:41;;;;;;;10.10;6.63;;;;;;;;;;5051426;28;20082;-62
2023/10/08 04:19:07;;;;;;;12.73;7.53;;;;;;;;;;5053038;28;20104;-62
2023/10/08 04:21:33;;;;;;;7.90;7.03;;;;;;;;;;5051755;28;20480;-62
2023/10/08 04:24:03;;;;;;;7.70;6.90;;;;;;;;;;5052982;28;20021;-62
2023/10/08 04:26:28;;;;;;;10.90;9.45;;;;;;;;;;5068889;28;20047;-63
2023/10/08 04:28:57;;;;;;;11.35;7.85;;;;;;;;;;5072896;28;20028;-62
2023/10/08 04:31:43;;;;;;;8.70;6.93;;;;;;;;;;5071197;28;20559;-62
2023/10/08 04:34:22;;;;;;;12.45;7.28;;;;;;;;;;5072690;28;20402;-62
2023/10/08 04:36:53;;;;;;;17.05;7.97;;;;;;;;;;5071165;28;20033;-63
2023/10/08 04:39:21;;;;;;;8.80;5.13;;;;;;;;;;5072502;28;20024;-59
2023/10/08 04:41:48;;;;;;;8.68;6.63;;;;;;;;;;5037956;28;20500;-62
2023/10/08 04:44:16;;;;;;;9.73;4.28;;;;;;;;;;5036604;28;20104;-63
2023/10/08 04:49:19;;;;;;;;;;;;;;;;;;5072645;28;20021;-61
2023/10/08 04:51:45;;;;;;;8.70;4.53;;;;;;;;;;5069029;28;20411;-62
2023/10/08 04:54:16;;;;;;;6.15;4.50;;;;;;;;;;5071409;28;20123;-59
2023/10/08 04:56:41;;;;;;;7.10;4.45;;;;;;;;;;5051867;28;20037;-59
2023/10/08 04:59:09;;;;;;;5.55;4.10;;;;;;;;;;5046719;28;20540;-61
2023/10/08 05:04:26;;;;;;;5.20;3.30;;;;;;;;;;5051397;28;20048;-65
2023/10/08 05:07:01;;;;;;;6.03;3.75;;;;;;;;;;5056123;28;20036;-62
2023/10/08 05:09:39;;;;;;;4.35;3.53;;;;;;;;;;5070601;28;20070;-61
2023/10/08 05:14:55;;;;;;;6.22;2.92;;;;;;;;;;5070607;28;20438;-62
2023/10/08 05:17:34;;;;;;;7.38;3.60;;;;;;;;;;5069025;28;20040;-61
2023/10/08 05:30:17;;;;;;;5.10;3.28;;;;;;;;;;5070195;28;20040;-61
2023/10/08 05:33:25;;;;;;;8.57;3.05;;;;;;;;;;5070135;28;20066;-62
2023/10/08 05:38:22;;;;;;;6.63;4.07;;;;;;;;;;5070276;28;20595;-61
2023/10/08 05:46:39;;;;;;;4.10;3.25;;;;;;;;;;5068359;28;20488;-61
2023/10/08 05:48:50;;;;;;;4.55;4.13;;;;;;;;;;5069532;28;20039;-61
2023/10/08 05:51:33;;;;;;;4.25;3.85;;;;;;;;;;5069562;28;20071;-60
2023/10/08 05:53:59;;;;;;;7.55;4.93;;;;;;;;;;5069375;28;20043;-61
2023/10/08 05:56:42;;;;;;;6.10;4.53;;;;;;;;;;5069026;28;20090;-61
2023/10/08 05:59:18;;;;;;;8.57;5.30;;;;;;;;;;5070986;28;20419;-61
2023/10/08 06:01:46;;;;;;;4.50;4.10;;;;;;;;;;5067979;28;20037;-60
2023/10/08 06:07:12;;;;;;;8.73;5.43;;;;;;;;;;5057578;28;20051;-61
2023/10/08 06:09:39;;;;;;;4.68;4.20;;;;;;;;;;5059236;28;20020;-61
2023/10/08 06:12:12;;;;;;;6.23;4.77;;;;;;;;;;5068300;28;20040;-60
2023/10/08 06:14:52;;;;;;;6.65;4.93;;;;;;;;;;5062705;28;20021;-59
2023/10/08 06:17:34;;;;;;;5.15;4.63;;;;;;;;;;5048605;28;20049;-64
2023/10/08 06:19:59;;;;;;;5.88;5.05;;;;;;;;;;5050705;28;20504;-59
2023/10/08 06:22:25;;;;;;;8.77;5.40;;;;;;;;;;5069279;28;20055;-59
2023/10/08 06:25:15;;;;;;;9.27;6.43;;;;;;;;;;5068598;28;20027;-59
2023/10/08 06:27:36;;;;;;;6.60;4.70;;;;;;;;;;5070148;28;20559;-60
2023/10/08 06:30:01;;;;;;;6.77;4.87;;;;;;;;;;5067712;28;20027;-59
2023/10/08 06:32:26;;;;;;;9.18;5.28;;;;;;;;;;5069980;28;20020;-59
2023/10/08 06:34:51;;;;;;;6.10;4.95;;;;;;;;;;5069699;28;20055;-59
2023/10/08 06:37:16;;;;;;;7.53;5.20;;;;;;;;;;5067387;28;20108;-60
2023/10/08 06:39:47;;;;;;;8.43;5.93;;;;;;;;;;5069398;28;20025;-60
2023/10/08 06:42:14;;;;;;;8.85;5.50;;;;;;;;;;5058305;28;20037;-60
2023/10/08 06:44:42;;;;;;;10.40;5.95;;;;;;;;;;5048348;28;20040;-69
2023/10/08 06:47:09;;;;;;;10.35;6.18;;;;;;;;;;5048390;28;20037;-60
2023/10/08 06:49:34;;;;;;;8.07;5.43;;;;;;;;;;5050808;28;20025;-60
2023/10/08 06:52:01;;;;;;;6.55;5.07;;;;;;;;;;5059894;28;20415;-60
2023/10/08 06:54:30;;;;;;;6.35;5.53;;;;;;;;;;5069087;28;20028;-60
2023/10/08 06:56:55;;;;;;;17.27;6.95;;;;;;;;;;5067769;28;20040;-60
2023/10/08 06:59:23;;;;;;;6.88;5.47;;;;;;;;;;5068751;28;20028;-60
2023/10/08 07:01:51;;;;;;;8.43;5.97;;;;;;;;;;5063165;28;20036;-60
2023/10/08 07:04:18;;;;;;;8.40;5.15;;;;;;;;;;5068043;28;20035;-60
2023/10/08 07:06:45;;;;;;;6.32;5.10;;;;;;;;;;5067370;28;20062;-60
2023/10/08 07:09:29;;;;;;;12.50;7.13;;;;;;;;;;5069670;28;20020;-59
2023/10/08 07:11:54;;;;;;;16.67;7.32;;;;;;;;;;5066612;28;20040;-60
2023/10/08 07:14:26;;;;;;;7.25;6.32;;;;;;;;;;5060711;28;20121;-59
2023/10/08 07:16:54;;;;;;;8.43;4.78;;;;;;;;;;5048927;28;20047;-60
2023/10/08 07:19:19;;;;;;;8.80;6.15;;;;;;;;;;5050151;28;20040;-59
2023/10/08 07:21:45;;;;;;;9.75;5.07;;;;;;;;;;5048381;28;20041;-60
2023/10/08 07:24:15;;;;;;;9.73;6.30;;;;;;;;;;5053485;28;20060;-60
2023/10/08 07:26:46;;;;;;;8.75;5.55;;;;;;;;;;5052543;28;20040;-60
2023/10/08 07:29:11;;;;;;;8.00;5.05;;;;;;;;;;5052877;28;20025;-60
2023/10/08 07:31:37;;;;;;;10.68;5.10;;;;;;;;;;5051815;28;20120;-59
2023/10/08 07:37:05;;;;;;;5.55;4.93;;;;;;;;;;5046429;28;20414;-60
2023/10/08 07:41:56;;;;;;;6.63;4.50;;;;;;;;;;5070028;28;20071;-60
2023/10/08 07:44:22;;;;;;;5.38;4.20;;;;;;;;;;5072075;28;20411;-72
2023/10/08 07:46:51;;;;;;;11.73;4.60;;;;;;;;;;5071061;28;20040;-60
2023/10/08 07:49:16;;;;;;;5.97;4.88;;;;;;;;;;5073158;28;20366;-60
2023/10/08 07:51:48;;;;;;;5.72;4.40;;;;;;;;;;5070553;28;20044;-60
2023/10/08 07:54:16;;;;;;;10.77;4.45;;;;;;;;;;5072661;28;20009;-60
2023/10/08 07:56:42;;;;;;;7.53;3.93;;;;;;;;;;5054933;28;20025;-60
2023/10/08 07:59:08;;;;;;;9.20;4.50;;;;;;;;;;5051381;28;20488;-60
2023/10/08 08:01:34;;;;;;;6.32;4.40;;;;;;;;;;5051142;28;20048;-59
2023/10/08 08:03:59;;;;;;;7.22;4.45;;;;;;;;;;5052734;28;20106;-59
2023/10/08 08:06:25;;;;;;;6.93;3.27;;;;;;;;;;5064381;28;20500;-65
2023/10/08 08:08:51;;;;;;;10.70;4.93;;;;;;;;;;5037061;28;20041;-60
2023/10/08 08:11:17;;;;;;;5.90;4.05;;;;;;;;;;5043884;28;20207;-59
2023/10/08 08:13:42;;;;;;;8.13;5.15;;;;;;;;;;5051817;28;20013;-60
2023/10/08 08:16:16;;;;;;;4.72;3.70;;;;;;;;;;5051108;28;20091;-60
2023/10/08 08:18:59;;;;;;;6.30;4.25;;;;;;;;;;5063287;28;20016;-60
2023/10/08 08:21:25;;;;;;;7.32;4.30;;;;;;;;;;5070228;28;20036;-60
2023/10/08 08:23:50;;;;;;;7.10;4.53;;;;;;;;;;5072156;28;20131;-60
2023/10/08 08:26:26;;;;;;;6.13;4.03;;;;;;;;;;5071256;28;20487;-60
2023/10/08 08:28:54;;;;;;;4.97;3.20;;;;;;;;;;5071087;28;20078;-60
2023/10/08 08:31:20;;;;;;;5.88;3.67;;;;;;;;;;5070689;28;20033;-60
2023/10/08 08:34:08;;;;;;;7.63;4.18;;;;;;;;;;5070857;28;20106;-62
2023/10/08 08:36:33;;;;;;;7.68;4.05;;;;;;;;;;5069800;28;20035;-60
2023/10/08 08:38:58;;;;;;;8.52;3.67;;;;;;;;;;5071898;28;20016;-60
2023/10/08 08:41:24;;;;;;;6.10;3.97;;;;;;;;;;5070618;28;20124;-60
2023/10/08 08:43:56;;;;;;;3.00;2.80;;;;;;;;;;5071368;28;20080;-60
2023/10/08 08:46:27;;;;;;;6.75;3.83;;;;;;;;;;5070478;28;20473;-60
2023/10/08 08:48:53;;;;;;;5.43;3.22;;;;;;;;;;5056793;28;20020;-60
2023/10/08 08:51:20;;;;;;;3.55;2.60;;;;;;;;;;5030888;28;20091;-60
2023/10/08 08:53:46;;;;;;;5.40;3.05;;;;;;;;;;5053093;28;20508;-60
2023/10/08 08:56:12;;;;;;;4.13;2.70;;;;;;;;;;5051081;28;20061;-60
2023/10/08 08:58:38;;;;;;;7.25;2.58;;;;;;;;;;5050690;28;20028;-60
2023/10/08 09:01:05;;;;;;;5.03;2.63;;;;;;;;;;5053008;28;20478;-60
2023/10/08 09:03:30;;;;;;;5.97;3.30;;;;;;;;;;5059425;28;20422;-62
2023/10/08 09:05:59;;;;;;;5.28;2.90;;;;;;;;;;5049543;28;20098;-60
2023/10/08 09:08:27;;;;;;;6.38;2.60;;;;;;;;;;5051717;28;20017;-60
2023/10/08 09:11:00;;;;;;;2.85;1.80;;;;;;;;;;5048812;28;20515;-60
2023/10/08 09:13:25;;;;;;;2.78;2.38;;;;;;;;;;5051611;28;20675;-60
2023/10/08 09:15:51;;;;;;;5.43;1.95;;;;;;;;;;5050777;28;20069;-60
2023/10/08 09:18:17;;;;;;;8.25;3.25;;;;;;;;;;5057130;28;20371;-60
2023/10/08 09:20:43;;;;;;;6.13;2.72;;;;;;;;;;5056432;28;20049;-60
2023/10/08 09:23:12;;;;;;;5.47;3.15;;;;;;;;;;5051222;28;20028;-61
2023/10/08 09:25:41;;;;;;;4.15;2.28;;;;;;;;;;5051189;28;20069;-60
2023/10/08 09:28:12;;;;;;;7.35;3.70;;;;;;;;;;5050388;28;20067;-60
2023/10/08 09:30:38;;;;;;;5.80;2.63;;;;;;;;;;5045703;28;20557;-60
2023/10/08 09:33:07;;;;;;;4.57;2.65;;;;;;;;;;5050564;28;20013;-60
2023/10/08 09:35:33;;;;;;;3.88;2.08;;;;;;;;;;5064901;28;20522;-60
2023/10/08 09:37:59;;;;;;;17.23;5.22;;;;;;;;;;5070754;28;20032;-64
2023/10/08 09:40:25;;;;;;;6.43;2.92;;;;;;;;;;5068753;28;20036;-59
2023/10/08 09:42:51;;;;;;;11.27;2.80;;;;;;;;;;5069388;28;20016;-60
2023/10/08 09:45:16;;;;;;;7.82;4.00;;;;;;;;;;5054509;28;20388;-60
2023/10/08 09:47:43;;;;;;;6.78;3.17;;;;;;;;;;5035222;28;20360;-60
2023/10/08 09:50:11;;;;;;;8.60;3.25;;;;;;;;;;5048492;28;20048;-60
2023/10/08 09:52:45;;;;;;;6.18;3.22;;;;;;;;;;5048328;28;20021;-60
2023/10/08 09:55:10;;;;;;;7.50;3.30;;;;;;;;;;5049358;28;20516;-60
2023/10/08 09:57:36;;;;;;;12.95;4.05;;;;;;;;;;5049994;28;20104;-60
2023/10/08 10:00:01;;;;;;;3.47;2.95;;;;;;;;;;5048965;28;20032;-60
2023/10/08 10:02:27;;;;;;;3.85;2.03;;;;;;;;;;5051869;28;20021;-60
2023/10/08 10:04:52;;;;;;;5.72;2.58;;;;;;;;;;5048088;28;20491;-60
2023/10/08 10:07:18;;;;;;;4.35;2.95;;;;;;;;;;5050659;28;20063;-61
2023/10/08 10:09:47;;;;;;;3.97;2.25;;;;;;;;;;5050609;28;20020;-60
2023/10/08 10:12:17;;;;;;;6.40;2.55;;;;;;;;;;5047870;28;20396;-60
2023/10/08 10:14:44;;;;;;;5.45;1.90;;;;;;;;;;5049696;28;20021;-60
2023/10/08 10:17:14;;;;;;;2.42;2.13;;;;;;;;;;5066711;28;20029;-72
2023/10/08 10:19:45;;;;;;;4.75;2.97;;;;;;;;;;5063680;28;20054;-60
2023/10/08 10:22:11;;;;;;;7.05;4.05;;;;;;;;;;5050716;28;20401;-60
2023/10/08 10:24:42;;;;;;;3.35;2.10;;;;;;;;;;5049973;28;20008;-60
2023/10/08 10:27:11;;;;;;;8.57;2.95;;;;;;;;;;5059185;28;20033;-60
2023/10/08 10:29:36;;;;;;;4.18;3.35;;;;;;;;;;5030290;28;20049;-60
2023/10/08 10:32:05;;;;;;;8.45;3.10;;;;;;;;;;5065334;28;20495;-60
2023/10/08 10:34:34;;;;;;;8.55;3.00;;;;;;;;;;5069064;28;20380;-60
2023/10/08 10:37:08;;;;;;;5.88;2.33;;;;;;;;;;5067212;28;20487;-60
2023/10/08 10:39:34;;;;;;;3.15;2.05;;;;;;;;;;5070064;28;20185;-60
2023/10/08 10:42:05;;;;;;;8.98;3.83;;;;;;;;;;5067093;28;20111;-60
2023/10/08 10:44:31;;;;;;;3.53;2.30;;;;;;;;;;5069546;28;20048;-60
2023/10/08 10:49:52;;;;;;;3.00;2.08;;;;;;;;;;5049293;28;20021;-60
2023/10/08 10:57:41;;;;;;;5.38;2.42;;;;;;;;;;5056147;28;20028;-60
2023/10/08 11:00:47;;;;;;;5.07;2.92;;;;;;;;;;5063751;28;20036;-60
2023/10/08 11:02:56;;;;;;;5.22;2.50;;;;;;;;;;5056178;28;20036;-60
2023/10/08 11:05:28;;;;;;;5.18;3.17;;;;;;;;;;5059338;28;20024;-60
2023/10/08 11:07:57;;;;;;;9.05;2.30;;;;;;;;;;5041266;28;20104;-60
2023/10/08 11:10:24;;;;;;;8.32;3.55;;;;;;;;;;5040341;28;20178;-65
2023/10/08 11:12:53;;;;;;;6.57;2.40;;;;;;;;;;5055676;28;20017;-60
2023/10/08 11:15:18;;;;;;;3.50;2.03;;;;;;;;;;5055140;28;20037;-60
2023/10/08 11:17:44;;;;;;;5.50;2.72;;;;;;;;;;5058753;28;20343;-61
2023/10/08 11:20:24;;;;;;;10.07;3.63;;;;;;;;;;5073389;28;20033;-60
2023/10/08 11:22:51;;;;;;;2.92;2.55;;;;;;;;;;5076544;28;20019;-60
2023/10/08 11:25:22;;;;;;;2.58;2.38;;;;;;;;;;5075008;28;20036;-60
2023/10/08 11:27:48;;;;;;;3.83;2.63;;;;;;;;;;5074083;28;20499;-59
2023/10/08 11:30:14;;;;;;;6.15;2.15;;;;;;;;;;5074868;28;20037;-60
2023/10/08 11:32:41;;;;;;;5.88;2.55;;;;;;;;;;5075840;28;20023;-60
2023/10/08 11:35:15;;;;;;;4.18;1.80;;;;;;;;;;5074628;28;20056;-60
2023/10/08 11:37:44;;;;;;;6.47;2.55;;;;;;;;;;5076652;28;20082;-60
2023/10/08 11:40:17;;;;;;;5.18;2.65;;;;;;;;;;5074389;28;20633;-60
2023/10/08 11:42:43;;;;;;;2.25;2.03;;;;;;;;;;5060717;28;20017;-60
2023/10/08 11:45:18;;;;;;;5.93;2.63;;;;;;;;;;5054964;28;20025;-60
2023/10/08 11:47:45;;;;;;;3.03;1.60;;;;;;;;;;5060813;28;20387;-59
2023/10/08 11:50:10;;;;;;;2.78;1.23;;;;;;;;;;5073113;28;20043;-60
2023/10/08 11:52:41;;;;;;;3.00;1.90;;;;;;;;;;5076460;28;20012;-60
2023/10/08 11:55:07;;;;;;;6.00;2.13;;;;;;;;;;5066324;28;20041;-60
2023/10/08 11:57:35;;;;;;;1.05;1.05;;;;;;;;;;5058821;28;20370;-60
2023/10/08 12:00:00;;;;;;;3.45;2.03;;;;;;;;;;5068277;28;20009;-60
2023/10/08 12:02:26;;;;;;;2.55;1.75;;;;;;;;;;5056364;28;20032;-60
2023/10/08 12:04:51;;;;;;;2.60;1.80;;;;;;;;;;5068780;28;20012;-60
2023/10/08 12:07:17;;;;;;;2.20;1.80;;;;;;;;;;5059498;28;20017;-60
2023/10/08 12:09:42;;;;;;;3.65;2.40;;;;;;;;;;5051524;28;20495;-59
2023/10/08 12:12:09;;;;;;;4.03;1.17;;;;;;;;;;5049425;28;20033;-60
2023/10/08 12:14:35;;;;;;;4.82;1.23;;;;;;;;;;5054785;28;20016;-64
2023/10/08 12:17:00;;;;;;;4.93;2.13;;;;;;;;;;5051012;28;20037;-60
2023/10/08 12:19:26;;;;;;;6.10;3.10;;;;;;;;;;5052875;28;20009;-60
2023/10/08 12:21:53;;;;;;;7.75;2.47;;;;;;;;;;5050787;28;20488;-60
2023/10/08 12:24:19;;;;;;;3.63;1.85;;;;;;;;;;5053750;28;20025;-60
2023/10/08 12:26:49;;;;;;;4.18;1.70;;;;;;;;;;5049834;28;20044;-60
2023/10/08 12:29:14;;;;;;;7.53;2.47;;;;;;;;;;5050777;28;20025;-60
2023/10/08 12:31:40;;;;;;;1.70;1.23;;;;;;;;;;5051036;28;20036;-60
2023/10/08 12:34:05;;;;;;;5.13;2.03;;;;;;;;;;5051366;28;20052;-60
2023/10/08 12:36:33;;;;;;;3.80;1.25;;;;;;;;;;5050752;28;20033;-59
2023/10/08 12:38:58;;;;;;;4.70;1.60;;;;;;;;;;5052691;28;20017;-60
2023/10/08 12:41:29;;;;;;;4.13;1.73;;;;;;;;;;5058678;28;20033;-60
2023/10/08 12:43:54;;;;;;;5.30;1.75;;;;;;;;;;5052654;28;20029;-60
2023/10/08 12:46:23;;;;;;;2.72;1.20;;;;;;;;;;5043592;28;20055;-59
2023/10/08 12:48:52;;;;;;;5.75;1.77;;;;;;;;;;5066512;28;20475;-72
2023/10/08 12:51:17;;;;;;;;;;;;;;;;;;5070926;28;20538;-60
2023/10/08 12:53:50;;;;;;;6.40;1.75;;;;;;;;;;5071872;28;19957;-59
2023/10/08 12:56:15;;;;;;;6.72;2.05;;;;;;;;;;5070837;28;20577;-59
2023/10/08 12:58:41;;;;;;;4.20;1.73;;;;;;;;;;5071861;28;20020;-64
2023/10/08 13:01:13;;;;;;;3.63;2.17;;;;;;;;;;5070711;28;20463;-59
2023/10/08 13:03:41;;;;;;;4.65;1.30;;;;;;;;;;5071178;28;20095;-59
2023/10/08 13:06:10;;;;;;;6.78;3.13;;;;;;;;;;5070063;28;20090;-59
2023/10/08 13:08:36;;;;;;;7.28;2.17;;;;;;;;;;5071986;28;20447;-59
2023/10/08 13:11:01;;;;;;;2.13;1.40;;;;;;;;;;5070153;28;20174;-59
2023/10/08 13:13:33;;;;;;;3.20;1.57;;;;;;;;;;5071466;28;20073;-60
2023/10/08 13:16:02;;;;;;;3.60;1.77;;;;;;;;;;5070331;28;20450;-59
2023/10/08 13:18:27;;;;;;;7.13;1.90;;;;;;;;;;5072095;28;20020;-59
2023/10/08 13:20:53;;;;;;;4.13;1.70;;;;;;;;;;5069264;28;20098;-59
2023/10/08 13:23:20;;;;;;;7.97;1.80;;;;;;;;;;5070339;28;20020;-59
2023/10/08 13:25:51;;;;;;;4.88;2.85;;;;;;;;;;5070236;28;20052;-59
2023/10/08 13:28:17;;;;;;;1.63;1.35;;;;;;;;;;5071046;28;20543;-59
2023/10/08 13:30:42;;;;;;;1.63;1.30;;;;;;;;;;5069995;28;20119;-59
2023/10/08 13:33:09;;;;;;;6.13;2.70;;;;;;;;;;5071465;28;20021;-59
2023/10/08 13:35:34;;;;;;;4.93;1.65;;;;;;;;;;5069507;28;20461;-59
2023/10/08 13:38:02;;;;;;;5.32;1.88;;;;;;;;;;5071196;28;20020;-59
2023/10/08 13:40:32;;;;;;;;;;;;;;;;;;5070540;28;20127;-59
2023/10/08 13:42:58;;;;;;;12.50;3.63;;;;;;;;;;5071185;28;19955;-59
2023/10/08 13:45:26;;;;;;;2.65;1.65;;;;;;;;;;5069833;28;20029;-70
2023/10/08 13:47:51;;;;;;;4.20;2.03;;;;;;;;;;5071205;28;20024;-59
2023/10/08 13:50:18;;;;;;;6.65;2.83;;;;;;;;;;5069240;28;20059;-58
2023/10/08 13:52:44;;;;;;;3.75;1.40;;;;;;;;;;5071078;28;20016;-58
2023/10/08 13:55:13;;;;;;;6.18;2.15;;;;;;;;;;5069387;28;20032;-59
2023/10/08 13:57:41;;;;;;;4.20;2.40;;;;;;;;;;5070723;28;20095;-58
2023/10/08 14:00:15;;;;;;;7.97;2.70;;;;;;;;;;5069806;28;20369;-59
2023/10/08 14:02:40;;;;;;;5.93;2.05;;;;;;;;;;5071188;28;20025;-59
2023/10/08 14:05:08;;;;;;;2.20;1.55;;;;;;;;;;5068960;28;20460;-59
2023/10/08 14:07:35;;;;;;;;;;;;;;;;;;5071680;28;20023;-59
2023/10/08 14:10:05;;;;;;;6.35;2.50;;;;;;;;;;5069376;28;19996;-59
2023/10/08 14:12:34;;;;;;;9.77;1.65;;;;;;;;;;5070526;28;20032;-59
2023/10/08 14:14:59;;;;;;;3.67;1.55;;;;;;;;;;5068924;28;20020;-64
2023/10/08 14:17:42;;;;;;;7.88;3.15;;;;;;;;;;5069845;28;20024;-59
2023/10/08 14:20:12;;;;;;;3.80;1.92;;;;;;;;;;5068542;28;20038;-59
2023/10/08 14:22:38;;;;;;;3.00;1.95;;;;;;;;;;5070474;28;20012;-59
2023/10/08 14:25:11;;;;;;;6.88;2.60;;;;;;;;;;5058331;28;20025;-59
2023/10/08 14:27:39;;;;;;;3.47;2.10;;;;;;;;;;5063420;28;20031;-59
2023/10/08 14:30:05;;;;;;;3.38;1.27;;;;;;;;;;5066694;28;20017;-59
2023/10/08 14:32:32;;;;;;;10.35;2.47;;;;;;;;;;5066644;28;20020;-59
2023/10/08 14:43:02;;;;;;;10.38;2.35;;;;;;;;;;5069851;28;20035;-59
2023/10/08 14:45:33;;;;;;;5.03;2.60;;;;;;;;;;5068167;28;20127;-59
2023/10/08 14:47:58;;;;;;;7.28;2.88;;;;;;;;;;5069431;28;20016;-59
2023/10/08 14:50:27;;;;;;;11.45;3.42;;;;;;;;;;5068572;28;20047;-60
2023/10/08 14:52:53;;;;;;;2.50;1.70;;;;;;;;;;5068657;28;20040;-59
2023/10/08 14:55:21;;;;;;;2.85;1.45;;;;;;;;;;5068185;28;20510;-59
2023/10/08 14:57:46;;;;;;;2.22;2.03;;;;;;;;;;5070068;28;20127;-59
2023/10/08 15:00:11;;;;;;;3.23;1.80;;;;;;;;;;5065620;28;20025;-59
2023/10/08 15:02:37;;;;;;;5.43;2.22;;;;;;;;;;5069116;28;20056;-59
2023/10/08 15:05:03;;;;;;;5.15;3.20;;;;;;;;;;5064299;28;20066;-59
2023/10/08 15:07:28;;;;;;;5.68;2.95;;;;;;;;;;5068806;28;20100;-59
2023/10/08 15:09:57;;;;;;;4.55;2.42;;;;;;;;;;5066309;28;20099;-68
2023/10/08 15:12:24;;;;;;;6.97;2.47;;;;;;;;;;5069554;28;20625;-60
2023/10/08 15:14:50;;;;;;;7.60;3.63;;;;;;;;;;5068528;28;20028;-58
2023/10/08 15:17:16;;;;;;;6.93;4.33;;;;;;;;;;5069362;28;20043;-59
2023/10/08 15:19:41;;;;;;;3.95;2.20;;;;;;;;;;5069372;28;20805;-59
2023/10/08 15:22:06;;;;;;;5.20;2.70;;;;;;;;;;5067236;28;20079;-59
2023/10/08 15:24:33;;;;;;;4.55;2.45;;;;;;;;;;5068167;28;20024;-59
2023/10/08 15:27:00;;;;;;;6.47;3.38;;;;;;;;;;5066709;28;20033;-59
2023/10/08 15:29:26;;;;;;;5.82;3.15;;;;;;;;;;5068665;28;20484;-60
2023/10/08 15:31:54;;;;;;;6.05;2.70;;;;;;;;;;5066566;28;20120;-66
2023/10/08 15:34:19;;;;;;;;;;;;;;;;;;5070123;28;20162;-60
2023/10/08 15:36:45;;;;;;;8.75;3.28;;;;;;;;;;5067691;28;20238;-60
2023/10/08 15:39:10;;;;;;;10.00;3.20;;;;;;;;;;5070049;28;20021;-60
2023/10/08 15:41:39;;;;;;;8.15;4.03;;;;;;;;;;5067725;28;20499;-60
2023/10/08 15:44:04;;;;;;;;;;;;;;;;;;5071960;28;20472;-59
2023/10/08 15:46:30;;;;;;;3.97;3.38;;;;;;;;;;5071145;28;19918;-67
2023/10/08 15:48:55;;;;;;;5.70;3.63;;;;;;;;;;5055006;28;20021;-60